sensor_id;sensor_type;location;lat;lon;timestamp;P1;durP1;ratioP1;P2;durP2;ratioP2
3050;SDS011;1535;51.098;6.414;2023-03-01T00:00:18;22.93;;;21.23;;
3050;SDS011;1535;51.098;6.414;2023-03-01T00:02:45;24.57;;;22.30;;
3050;SDS011;1535;51.098;6.414;2023-03-01T00:05:12;21.90;;;20.30;;
3050;SDS011;1535;51.098;6.414;2023-03-01T00:07:38;22.33;;;20.63;;
3050;SDS011;1535;51.098;6.414;2023-03-01T00:10:05;23.03;;;21.23;;
3050;SDS011;1535;51.098;6.414;2023-03-01T00:12:34;24.37;;;22.13;;
3050;SDS011;1535;51.098;6.414;2023-03-01T00:15:01;23.90;;;21.80;;
3050;SDS011;1535;51.098;6.414;2023-03-01T00:17:29;23.23;;;20.90;;
3050;SDS011;1535;51.098;6.414;2023-03-01T00:19:57;23.00;;;21.20;;
3050;SDS011;1535;51.098;6.414;2023-03-01T00:22:23;24.00;;;21.90;;
3050;SDS011;1535;51.098;6.414;2023-03-01T00:24:53;24.03;;;21.93;;
3050;SDS011;1535;51.098;6.414;2023-03-01T00:27:20;24.17;;;22.20;;
3050;SDS011;1535;51.098;6.414;2023-03-01T00:29:48;23.90;;;21.63;;
3050;SDS011;1535;51.098;6.414;2023-03-01T00:32:15;24.13;;;21.57;;
3050;SDS011;1535;51.098;6.414;2023-03-01T00:34:42;24.03;;;22.03;;
3050;SDS011;1535;51.098;6.414;2023-03-01T00:37:19;22.73;;;20.93;;
3050;SDS011;1535;51.098;6.414;2023-03-01T00:39:46;24.10;;;22.20;;
3050;SDS011;1535;51.098;6.414;2023-03-01T00:42:14;22.67;;;20.47;;
3050;SDS011;1535;51.098;6.414;2023-03-01T00:44:41;22.17;;;20.47;;
3050;SDS011;1535;51.098;6.414;2023-03-01T00:47:10;24.40;;;22.17;;
3050;SDS011;1535;51.098;6.414;2023-03-01T00:49:36;23.30;;;21.27;;
3050;SDS011;1535;51.098;6.414;2023-03-01T00:52:03;22.87;;;20.70;;
3050;SDS011;1535;51.098;6.414;2023-03-01T00:54:30;23.67;;;21.40;;
3050;SDS011;1535;51.098;6.414;2023-03-01T00:56:58;24.27;;;22.17;;
3050;SDS011;1535;51.098;6.414;2023-03-01T00:59:25;25.03;;;21.27;;
3050;SDS011;1535;51.098;6.414;2023-03-01T01:01:52;22.60;;;20.80;;
3050;SDS011;1535;51.098;6.414;2023-03-01T01:04:20;23.13;;;21.03;;
3050;SDS011;1535;51.098;6.414;2023-03-01T01:06:47;22.83;;;20.77;;
3050;SDS011;1535;51.098;6.414;2023-03-01T01:09:14;23.20;;;21.17;;
3050;SDS011;1535;51.098;6.414;2023-03-01T01:11:43;23.60;;;21.77;;
3050;SDS011;1535;51.098;6.414;2023-03-01T01:14:10;23.63;;;21.73;;
3050;SDS011;1535;51.098;6.414;2023-03-01T01:16:37;24.20;;;22.23;;
3050;SDS011;1535;51.098;6.414;2023-03-01T01:19:05;23.77;;;21.87;;
3050;SDS011;1535;51.098;6.414;2023-03-01T01:21:34;24.17;;;22.23;;
3050;SDS011;1535;51.098;6.414;2023-03-01T01:24:02;23.07;;;21.13;;
3050;SDS011;1535;51.098;6.414;2023-03-01T01:26:30;25.50;;;23.10;;
3050;SDS011;1535;51.098;6.414;2023-03-01T01:28:58;24.27;;;22.27;;
3050;SDS011;1535;51.098;6.414;2023-03-01T01:31:27;23.30;;;21.10;;
3050;SDS011;1535;51.098;6.414;2023-03-01T01:33:54;24.70;;;22.43;;
3050;SDS011;1535;51.098;6.414;2023-03-01T01:36:22;22.70;;;20.90;;
3050;SDS011;1535;51.098;6.414;2023-03-01T01:38:51;24.27;;;22.00;;
3050;SDS011;1535;51.098;6.414;2023-03-01T01:41:18;25.03;;;22.70;;
3050;SDS011;1535;51.098;6.414;2023-03-01T01:43:47;23.10;;;21.10;;
3050;SDS011;1535;51.098;6.414;2023-03-01T01:46:19;23.87;;;21.90;;
3050;SDS011;1535;51.098;6.414;2023-03-01T01:48:52;24.17;;;21.97;;
3050;SDS011;1535;51.098;6.414;2023-03-01T01:51:24;24.40;;;22.10;;
3050;SDS011;1535;51.098;6.414;2023-03-01T01:53:56;23.80;;;21.80;;
3050;SDS011;1535;51.098;6.414;2023-03-01T01:56:26;25.50;;;23.30;;
3050;SDS011;1535;51.098;6.414;2023-03-01T01:58:54;30.10;;;23.57;;
3050;SDS011;1535;51.098;6.414;2023-03-01T02:01:22;24.87;;;22.77;;
3050;SDS011;1535;51.098;6.414;2023-03-01T02:03:49;24.50;;;22.33;;
3050;SDS011;1535;51.098;6.414;2023-03-01T02:06:17;23.93;;;21.83;;
3050;SDS011;1535;51.098;6.414;2023-03-01T02:08:48;24.20;;;21.83;;
3050;SDS011;1535;51.098;6.414;2023-03-01T02:11:19;24.63;;;22.43;;
3050;SDS011;1535;51.098;6.414;2023-03-01T02:13:47;23.87;;;21.70;;
3050;SDS011;1535;51.098;6.414;2023-03-01T02:16:14;22.67;;;20.67;;
3050;SDS011;1535;51.098;6.414;2023-03-01T02:18:42;24.47;;;22.30;;
3050;SDS011;1535;51.098;6.414;2023-03-01T02:21:17;24.23;;;21.97;;
3050;SDS011;1535;51.098;6.414;2023-03-01T02:23:51;24.60;;;22.20;;
3050;SDS011;1535;51.098;6.414;2023-03-01T02:26:23;23.37;;;21.20;;
3050;SDS011;1535;51.098;6.414;2023-03-01T02:28:57;23.97;;;21.60;;
3050;SDS011;1535;51.098;6.414;2023-03-01T02:31:24;23.40;;;21.30;;
3050;SDS011;1535;51.098;6.414;2023-03-01T02:34:10;23.90;;;21.80;;
3050;SDS011;1535;51.098;6.414;2023-03-01T02:36:39;24.77;;;22.10;;
3050;SDS011;1535;51.098;6.414;2023-03-01T02:39:10;29.43;;;21.83;;
3050;SDS011;1535;51.098;6.414;2023-03-01T02:41:43;23.57;;;21.37;;
3050;SDS011;1535;51.098;6.414;2023-03-01T02:44:13;23.93;;;21.70;;
3050;SDS011;1535;51.098;6.414;2023-03-01T02:46:45;23.83;;;21.83;;
3050;SDS011;1535;51.098;6.414;2023-03-01T02:49:21;22.57;;;20.53;;
3050;SDS011;1535;51.098;6.414;2023-03-01T02:54:48;23.83;;;21.53;;
3050;SDS011;1535;51.098;6.414;2023-03-01T02:57:18;22.77;;;20.90;;
3050;SDS011;1535;51.098;6.414;2023-03-01T02:59:48;24.23;;;21.87;;
3050;SDS011;1535;51.098;6.414;2023-03-01T03:02:19;24.57;;;22.30;;
3050;SDS011;1535;51.098;6.414;2023-03-01T03:05:01;23.47;;;21.27;;
3050;SDS011;1535;51.098;6.414;2023-03-01T03:07:31;26.70;;;23.93;;
3050;SDS011;1535;51.098;6.414;2023-03-01T03:09:58;24.47;;;22.07;;
3050;SDS011;1535;51.098;6.414;2023-03-01T03:12:25;23.97;;;21.90;;
3050;SDS011;1535;51.098;6.414;2023-03-01T03:14:53;25.13;;;22.73;;
3050;SDS011;1535;51.098;6.414;2023-03-01T03:17:19;24.10;;;21.97;;
3050;SDS011;1535;51.098;6.414;2023-03-01T03:19:46;24.60;;;22.30;;
3050;SDS011;1535;51.098;6.414;2023-03-01T03:22:13;23.57;;;21.40;;
3050;SDS011;1535;51.098;6.414;2023-03-01T03:24:40;25.57;;;23.13;;
3050;SDS011;1535;51.098;6.414;2023-03-01T03:27:07;26.77;;;22.57;;
3050;SDS011;1535;51.098;6.414;2023-03-01T03:29:34;25.47;;;23.03;;
3050;SDS011;1535;51.098;6.414;2023-03-01T03:32:03;24.67;;;22.37;;
3050;SDS011;1535;51.098;6.414;2023-03-01T03:34:30;26.13;;;23.30;;
3050;SDS011;1535;51.098;6.414;2023-03-01T03:36:56;24.23;;;22.10;;
3050;SDS011;1535;51.098;6.414;2023-03-01T03:39:24;25.20;;;22.80;;
3050;SDS011;1535;51.098;6.414;2023-03-01T03:41:52;31.67;;;24.27;;
3050;SDS011;1535;51.098;6.414;2023-03-01T03:44:19;26.33;;;23.93;;
3050;SDS011;1535;51.098;6.414;2023-03-01T03:46:46;26.03;;;23.60;;
3050;SDS011;1535;51.098;6.414;2023-03-01T03:49:14;26.37;;;23.87;;
3050;SDS011;1535;51.098;6.414;2023-03-01T03:51:41;25.63;;;23.37;;
3050;SDS011;1535;51.098;6.414;2023-03-01T03:54:07;26.57;;;23.80;;
3050;SDS011;1535;51.098;6.414;2023-03-01T03:56:35;25.53;;;22.87;;
3050;SDS011;1535;51.098;6.414;2023-03-01T03:59:02;27.13;;;24.53;;
3050;SDS011;1535;51.098;6.414;2023-03-01T04:01:30;25.13;;;22.73;;
3050;SDS011;1535;51.098;6.414;2023-03-01T04:03:58;26.83;;;24.17;;
3050;SDS011;1535;51.098;6.414;2023-03-01T04:06:30;24.60;;;22.20;;
3050;SDS011;1535;51.098;6.414;2023-03-01T04:08:57;24.87;;;22.43;;
3050;SDS011;1535;51.098;6.414;2023-03-01T04:11:25;23.70;;;21.40;;
3050;SDS011;1535;51.098;6.414;2023-03-01T04:13:53;28.43;;;22.10;;
3050;SDS011;1535;51.098;6.414;2023-03-01T04:16:20;23.83;;;21.60;;
3050;SDS011;1535;51.098;6.414;2023-03-01T04:18:48;23.73;;;21.73;;
3050;SDS011;1535;51.098;6.414;2023-03-01T04:21:15;29.90;;;23.00;;
3050;SDS011;1535;51.098;6.414;2023-03-01T04:23:43;24.90;;;22.40;;
3050;SDS011;1535;51.098;6.414;2023-03-01T04:26:10;24.30;;;21.87;;
3050;SDS011;1535;51.098;6.414;2023-03-01T04:28:38;26.77;;;23.40;;
3050;SDS011;1535;51.098;6.414;2023-03-01T04:31:08;23.53;;;21.20;;
3050;SDS011;1535;51.098;6.414;2023-03-01T04:33:39;24.63;;;22.30;;
3050;SDS011;1535;51.098;6.414;2023-03-01T04:36:07;24.17;;;21.83;;
3050;SDS011;1535;51.098;6.414;2023-03-01T04:38:34;23.67;;;21.23;;
3050;SDS011;1535;51.098;6.414;2023-03-01T04:41:03;27.50;;;22.27;;
3050;SDS011;1535;51.098;6.414;2023-03-01T04:43:31;24.47;;;21.97;;
3050;SDS011;1535;51.098;6.414;2023-03-01T04:46:02;25.30;;;22.70;;
3050;SDS011;1535;51.098;6.414;2023-03-01T04:48:31;24.97;;;22.50;;
3050;SDS011;1535;51.098;6.414;2023-03-01T04:50:59;25.50;;;23.20;;
3050;SDS011;1535;51.098;6.414;2023-03-01T04:53:26;25.17;;;22.80;;
3050;SDS011;1535;51.098;6.414;2023-03-01T04:55:54;26.90;;;24.00;;
3050;SDS011;1535;51.098;6.414;2023-03-01T04:58:23;27.20;;;23.40;;
3050;SDS011;1535;51.098;6.414;2023-03-01T05:00:50;25.27;;;22.83;;
3050;SDS011;1535;51.098;6.414;2023-03-01T05:03:17;25.77;;;23.07;;
3050;SDS011;1535;51.098;6.414;2023-03-01T05:05:45;24.17;;;22.03;;
3050;SDS011;1535;51.098;6.414;2023-03-01T05:08:13;26.23;;;23.70;;
3050;SDS011;1535;51.098;6.414;2023-03-01T05:10:43;25.97;;;23.30;;
3050;SDS011;1535;51.098;6.414;2023-03-01T05:13:12;27.67;;;24.77;;
3050;SDS011;1535;51.098;6.414;2023-03-01T05:15:46;26.47;;;24.07;;
3050;SDS011;1535;51.098;6.414;2023-03-01T05:18:13;27.47;;;23.60;;
3050;SDS011;1535;51.098;6.414;2023-03-01T05:20:40;25.90;;;23.40;;
3050;SDS011;1535;51.098;6.414;2023-03-01T05:23:07;36.23;;;23.93;;
3050;SDS011;1535;51.098;6.414;2023-03-01T05:25:34;26.63;;;23.60;;
3050;SDS011;1535;51.098;6.414;2023-03-01T05:28:05;26.30;;;23.53;;
3050;SDS011;1535;51.098;6.414;2023-03-01T05:30:32;24.90;;;22.30;;
3050;SDS011;1535;51.098;6.414;2023-03-01T05:33:01;28.47;;;24.00;;
3050;SDS011;1535;51.098;6.414;2023-03-01T05:35:28;26.57;;;23.97;;
3050;SDS011;1535;51.098;6.414;2023-03-01T05:37:57;25.37;;;23.00;;
3050;SDS011;1535;51.098;6.414;2023-03-01T05:40:25;26.40;;;23.70;;
3050;SDS011;1535;51.098;6.414;2023-03-01T05:42:52;27.47;;;23.43;;
3050;SDS011;1535;51.098;6.414;2023-03-01T05:45:20;27.97;;;24.93;;
3050;SDS011;1535;51.098;6.414;2023-03-01T05:47:50;24.97;;;22.70;;
3050;SDS011;1535;51.098;6.414;2023-03-01T05:50:19;24.10;;;21.90;;
3050;SDS011;1535;51.098;6.414;2023-03-01T05:52:48;25.23;;;22.73;;
3050;SDS011;1535;51.098;6.414;2023-03-01T05:55:16;25.33;;;22.83;;
3050;SDS011;1535;51.098;6.414;2023-03-01T05:57:44;26.30;;;23.57;;
3050;SDS011;1535;51.098;6.414;2023-03-01T06:00:12;25.30;;;22.73;;
3050;SDS011;1535;51.098;6.414;2023-03-01T06:02:41;24.70;;;22.03;;
3050;SDS011;1535;51.098;6.414;2023-03-01T06:05:08;24.67;;;22.37;;
3050;SDS011;1535;51.098;6.414;2023-03-01T06:07:37;25.53;;;22.70;;
3050;SDS011;1535;51.098;6.414;2023-03-01T06:10:05;26.60;;;22.83;;
3050;SDS011;1535;51.098;6.414;2023-03-01T06:12:33;27.10;;;21.97;;
3050;SDS011;1535;51.098;6.414;2023-03-01T06:15:01;25.70;;;23.07;;
3050;SDS011;1535;51.098;6.414;2023-03-01T06:17:29;30.87;;;25.27;;
3050;SDS011;1535;51.098;6.414;2023-03-01T06:19:57;24.77;;;22.47;;
3050;SDS011;1535;51.098;6.414;2023-03-01T06:22:24;28.03;;;23.50;;
3050;SDS011;1535;51.098;6.414;2023-03-01T06:24:52;30.90;;;24.83;;
3050;SDS011;1535;51.098;6.414;2023-03-01T06:27:19;26.27;;;23.57;;
3050;SDS011;1535;51.098;6.414;2023-03-01T06:29:46;26.80;;;24.30;;
3050;SDS011;1535;51.098;6.414;2023-03-01T06:32:13;27.90;;;23.60;;
3050;SDS011;1535;51.098;6.414;2023-03-01T06:34:40;27.43;;;24.90;;
3050;SDS011;1535;51.098;6.414;2023-03-01T06:37:07;26.50;;;23.83;;
3050;SDS011;1535;51.098;6.414;2023-03-01T06:39:34;25.60;;;23.30;;
3050;SDS011;1535;51.098;6.414;2023-03-01T06:42:03;32.37;;;25.97;;
3050;SDS011;1535;51.098;6.414;2023-03-01T06:44:30;27.17;;;24.57;;
3050;SDS011;1535;51.098;6.414;2023-03-01T06:46:56;28.70;;;25.80;;
3050;SDS011;1535;51.098;6.414;2023-03-01T06:49:24;31.43;;;24.90;;
3050;SDS011;1535;51.098;6.414;2023-03-01T06:51:51;27.50;;;24.57;;
3050;SDS011;1535;51.098;6.414;2023-03-01T06:54:19;26.60;;;24.07;;
3050;SDS011;1535;51.098;6.414;2023-03-01T06:56:47;27.37;;;24.80;;
3050;SDS011;1535;51.098;6.414;2023-03-01T06:59:16;27.77;;;24.77;;
3050;SDS011;1535;51.098;6.414;2023-03-01T07:01:45;30.37;;;27.23;;
3050;SDS011;1535;51.098;6.414;2023-03-01T07:04:12;28.07;;;25.37;;
3050;SDS011;1535;51.098;6.414;2023-03-01T07:06:39;33.83;;;24.67;;
3050;SDS011;1535;51.098;6.414;2023-03-01T07:09:07;33.40;;;27.90;;
3050;SDS011;1535;51.098;6.414;2023-03-01T07:11:34;28.30;;;25.27;;
3050;SDS011;1535;51.098;6.414;2023-03-01T07:14:01;31.17;;;25.50;;
3050;SDS011;1535;51.098;6.414;2023-03-01T07:16:30;26.77;;;24.10;;
3050;SDS011;1535;51.098;6.414;2023-03-01T07:18:56;27.90;;;23.70;;
3050;SDS011;1535;51.098;6.414;2023-03-01T07:21:24;29.23;;;26.27;;
3050;SDS011;1535;51.098;6.414;2023-03-01T07:23:51;29.30;;;25.00;;
3050;SDS011;1535;51.098;6.414;2023-03-01T07:26:17;26.90;;;24.10;;
3050;SDS011;1535;51.098;6.414;2023-03-01T07:28:45;27.70;;;24.73;;
3050;SDS011;1535;51.098;6.414;2023-03-01T07:31:11;31.00;;;26.33;;
3050;SDS011;1535;51.098;6.414;2023-03-01T07:33:40;27.43;;;24.67;;
3050;SDS011;1535;51.098;6.414;2023-03-01T07:36:07;32.50;;;26.57;;
3050;SDS011;1535;51.098;6.414;2023-03-01T07:38:36;31.00;;;25.13;;
3050;SDS011;1535;51.098;6.414;2023-03-01T07:41:03;30.80;;;27.20;;
3050;SDS011;1535;51.098;6.414;2023-03-01T07:43:30;29.27;;;26.33;;
3050;SDS011;1535;51.098;6.414;2023-03-01T07:45:58;29.20;;;26.10;;
3050;SDS011;1535;51.098;6.414;2023-03-01T07:48:26;33.50;;;26.60;;
3050;SDS011;1535;51.098;6.414;2023-03-01T07:50:55;34.53;;;26.67;;
3050;SDS011;1535;51.098;6.414;2023-03-01T07:53:24;31.60;;;28.23;;
3050;SDS011;1535;51.098;6.414;2023-03-01T07:55:59;29.13;;;26.03;;
3050;SDS011;1535;51.098;6.414;2023-03-01T07:58:28;29.40;;;26.33;;
3050;SDS011;1535;51.098;6.414;2023-03-01T08:00:54;34.63;;;26.00;;
3050;SDS011;1535;51.098;6.414;2023-03-01T08:03:22;29.40;;;26.33;;
3050;SDS011;1535;51.098;6.414;2023-03-01T08:05:49;33.80;;;27.53;;
3050;SDS011;1535;51.098;6.414;2023-03-01T08:08:18;30.97;;;27.90;;
3050;SDS011;1535;51.098;6.414;2023-03-01T08:10:45;31.57;;;28.37;;
3050;SDS011;1535;51.098;6.414;2023-03-01T08:13:12;32.50;;;28.83;;
3050;SDS011;1535;51.098;6.414;2023-03-01T08:15:39;35.37;;;30.57;;
3050;SDS011;1535;51.098;6.414;2023-03-01T08:18:06;32.23;;;29.13;;
3050;SDS011;1535;51.098;6.414;2023-03-01T08:20:33;30.03;;;26.83;;
3050;SDS011;1535;51.098;6.414;2023-03-01T08:23:00;31.57;;;28.27;;
3050;SDS011;1535;51.098;6.414;2023-03-01T08:25:28;37.20;;;28.83;;
3050;SDS011;1535;51.098;6.414;2023-03-01T08:27:55;33.70;;;30.07;;
3050;SDS011;1535;51.098;6.414;2023-03-01T08:30:22;33.17;;;29.73;;
3050;SDS011;1535;51.098;6.414;2023-03-01T08:32:49;32.47;;;28.97;;
3050;SDS011;1535;51.098;6.414;2023-03-01T08:35:16;33.37;;;30.13;;
3050;SDS011;1535;51.098;6.414;2023-03-01T08:37:45;33.33;;;29.70;;
3050;SDS011;1535;51.098;6.414;2023-03-01T08:40:13;36.90;;;33.20;;
3050;SDS011;1535;51.098;6.414;2023-03-01T08:42:41;32.63;;;29.43;;
3050;SDS011;1535;51.098;6.414;2023-03-01T08:45:09;44.53;;;30.20;;
3050;SDS011;1535;51.098;6.414;2023-03-01T08:47:37;31.73;;;28.60;;
3050;SDS011;1535;51.098;6.414;2023-03-01T08:50:05;31.00;;;26.67;;
3050;SDS011;1535;51.098;6.414;2023-03-01T08:52:33;31.93;;;28.27;;
3050;SDS011;1535;51.098;6.414;2023-03-01T08:55:01;33.30;;;29.70;;
3050;SDS011;1535;51.098;6.414;2023-03-01T08:57:27;33.47;;;30.00;;
3050;SDS011;1535;51.098;6.414;2023-03-01T08:59:55;36.53;;;29.00;;
3050;SDS011;1535;51.098;6.414;2023-03-01T09:02:23;32.53;;;29.33;;
3050;SDS011;1535;51.098;6.414;2023-03-01T09:04:49;34.90;;;31.03;;
3050;SDS011;1535;51.098;6.414;2023-03-01T09:07:16;32.43;;;29.23;;
3050;SDS011;1535;51.098;6.414;2023-03-01T09:09:43;33.10;;;29.80;;
3050;SDS011;1535;51.098;6.414;2023-03-01T09:12:09;34.33;;;30.50;;
3050;SDS011;1535;51.098;6.414;2023-03-01T09:14:36;31.23;;;28.03;;
3050;SDS011;1535;51.098;6.414;2023-03-01T09:17:06;28.47;;;25.70;;
3050;SDS011;1535;51.098;6.414;2023-03-01T09:19:33;30.10;;;27.20;;
3050;SDS011;1535;51.098;6.414;2023-03-01T09:22:02;32.20;;;29.20;;
3050;SDS011;1535;51.098;6.414;2023-03-01T09:24:30;32.53;;;28.87;;
3050;SDS011;1535;51.098;6.414;2023-03-01T09:26:57;28.60;;;25.90;;
3050;SDS011;1535;51.098;6.414;2023-03-01T09:29:24;32.37;;;28.10;;
3050;SDS011;1535;51.098;6.414;2023-03-01T09:31:51;30.80;;;27.80;;
3050;SDS011;1535;51.098;6.414;2023-03-01T09:34:21;32.43;;;29.23;;
3050;SDS011;1535;51.098;6.414;2023-03-01T09:36:49;33.00;;;29.60;;
3050;SDS011;1535;51.098;6.414;2023-03-01T09:39:16;31.37;;;27.77;;
3050;SDS011;1535;51.098;6.414;2023-03-01T09:41:45;31.40;;;28.60;;
3050;SDS011;1535;51.098;6.414;2023-03-01T09:44:24;36.33;;;31.40;;
3050;SDS011;1535;51.098;6.414;2023-03-01T09:46:57;32.77;;;29.37;;
3050;SDS011;1535;51.098;6.414;2023-03-01T09:49:27;33.63;;;28.90;;
3050;SDS011;1535;51.098;6.414;2023-03-01T09:51:56;36.07;;;29.80;;
3050;SDS011;1535;51.098;6.414;2023-03-01T09:54:26;32.30;;;28.93;;
3050;SDS011;1535;51.098;6.414;2023-03-01T09:57:05;36.57;;;29.77;;
3050;SDS011;1535;51.098;6.414;2023-03-01T09:59:41;32.53;;;29.20;;
3050;SDS011;1535;51.098;6.414;2023-03-01T10:02:24;32.83;;;29.73;;
3050;SDS011;1535;51.098;6.414;2023-03-01T10:04:59;33.53;;;30.07;;
3050;SDS011;1535;51.098;6.414;2023-03-01T10:07:37;33.13;;;29.73;;
3050;SDS011;1535;51.098;6.414;2023-03-01T10:10:16;37.20;;;30.50;;
3050;SDS011;1535;51.098;6.414;2023-03-01T10:12:52;33.60;;;30.13;;
3050;SDS011;1535;51.098;6.414;2023-03-01T10:15:20;35.70;;;31.90;;
3050;SDS011;1535;51.098;6.414;2023-03-01T10:17:55;32.83;;;29.50;;
3050;SDS011;1535;51.098;6.414;2023-03-01T10:20:26;31.83;;;28.53;;
3050;SDS011;1535;51.098;6.414;2023-03-01T10:22:59;32.77;;;29.63;;
3050;SDS011;1535;51.098;6.414;2023-03-01T10:25:32;32.47;;;29.17;;
3050;SDS011;1535;51.098;6.414;2023-03-01T10:28:10;32.37;;;29.30;;
3050;SDS011;1535;51.098;6.414;2023-03-01T10:30:42;39.40;;;29.47;;
3050;SDS011;1535;51.098;6.414;2023-03-01T10:33:13;32.23;;;29.13;;
3050;SDS011;1535;51.098;6.414;2023-03-01T10:35:44;31.50;;;28.33;;
3050;SDS011;1535;51.098;6.414;2023-03-01T10:38:12;31.57;;;28.80;;
3050;SDS011;1535;51.098;6.414;2023-03-01T10:40:49;30.37;;;27.60;;
3050;SDS011;1535;51.098;6.414;2023-03-01T10:43:18;30.17;;;27.20;;
3050;SDS011;1535;51.098;6.414;2023-03-01T10:45:45;29.63;;;27.07;;
3050;SDS011;1535;51.098;6.414;2023-03-01T10:48:14;30.00;;;27.17;;
3050;SDS011;1535;51.098;6.414;2023-03-01T10:50:42;30.00;;;27.13;;
3050;SDS011;1535;51.098;6.414;2023-03-01T10:55:59;29.37;;;26.77;;
3050;SDS011;1535;51.098;6.414;2023-03-01T10:58:31;28.47;;;26.17;;
3050;SDS011;1535;51.098;6.414;2023-03-01T11:00:59;29.83;;;27.37;;
3050;SDS011;1535;51.098;6.414;2023-03-01T11:03:28;29.10;;;26.47;;
3050;SDS011;1535;51.098;6.414;2023-03-01T11:05:59;30.20;;;27.63;;
3050;SDS011;1535;51.098;6.414;2023-03-01T11:08:33;29.97;;;27.50;;
3050;SDS011;1535;51.098;6.414;2023-03-01T11:11:06;28.80;;;26.60;;
3050;SDS011;1535;51.098;6.414;2023-03-01T11:13:53;28.33;;;26.13;;
3050;SDS011;1535;51.098;6.414;2023-03-01T11:16:26;29.63;;;27.00;;
3050;SDS011;1535;51.098;6.414;2023-03-01T11:18:55;28.67;;;26.17;;
3050;SDS011;1535;51.098;6.414;2023-03-01T11:21:25;29.13;;;26.73;;
3050;SDS011;1535;51.098;6.414;2023-03-01T11:23:54;29.40;;;27.00;;
3050;SDS011;1535;51.098;6.414;2023-03-01T11:26:24;29.90;;;27.50;;
3050;SDS011;1535;51.098;6.414;2023-03-01T11:28:51;28.83;;;26.23;;
3050;SDS011;1535;51.098;6.414;2023-03-01T11:31:23;28.83;;;26.47;;
3050;SDS011;1535;51.098;6.414;2023-03-01T11:33:53;29.33;;;27.07;;
3050;SDS011;1535;51.098;6.414;2023-03-01T11:36:28;29.20;;;26.70;;
3050;SDS011;1535;51.098;6.414;2023-03-01T11:39:01;29.53;;;26.90;;
3050;SDS011;1535;51.098;6.414;2023-03-01T11:41:31;27.87;;;25.77;;
3050;SDS011;1535;51.098;6.414;2023-03-01T11:44:03;29.67;;;27.30;;
3050;SDS011;1535;51.098;6.414;2023-03-01T11:46:40;29.63;;;27.03;;
3050;SDS011;1535;51.098;6.414;2023-03-01T11:49:36;28.07;;;25.97;;
3050;SDS011;1535;51.098;6.414;2023-03-01T11:52:31;28.27;;;25.70;;
3050;SDS011;1535;51.098;6.414;2023-03-01T11:55:14;37.33;;;25.50;;
3050;SDS011;1535;51.098;6.414;2023-03-01T11:57:58;27.27;;;25.07;;
3050;SDS011;1535;51.098;6.414;2023-03-01T12:00:46;28.20;;;25.90;;
3050;SDS011;1535;51.098;6.414;2023-03-01T12:03:28;28.53;;;26.23;;
3050;SDS011;1535;51.098;6.414;2023-03-01T12:06:09;28.00;;;25.60;;
3050;SDS011;1535;51.098;6.414;2023-03-01T12:09:09;27.60;;;25.47;;
3050;SDS011;1535;51.098;6.414;2023-03-01T12:11:50;28.53;;;26.10;;
3050;SDS011;1535;51.098;6.414;2023-03-01T12:14:34;29.27;;;26.43;;
3050;SDS011;1535;51.098;6.414;2023-03-01T12:17:16;28.30;;;26.00;;
3050;SDS011;1535;51.098;6.414;2023-03-01T12:20:01;28.90;;;26.67;;
3050;SDS011;1535;51.098;6.414;2023-03-01T12:22:48;27.70;;;25.60;;
3050;SDS011;1535;51.098;6.414;2023-03-01T12:25:30;28.90;;;26.50;;
3050;SDS011;1535;51.098;6.414;2023-03-01T12:31:15;29.00;;;26.53;;
3050;SDS011;1535;51.098;6.414;2023-03-01T12:33:56;27.03;;;24.63;;
3050;SDS011;1535;51.098;6.414;2023-03-01T12:36:39;29.57;;;27.07;;
3050;SDS011;1535;51.098;6.414;2023-03-01T12:39:28;29.83;;;27.10;;
3050;SDS011;1535;51.098;6.414;2023-03-01T12:42:07;29.20;;;26.80;;
3050;SDS011;1535;51.098;6.414;2023-03-01T12:44:46;27.90;;;25.37;;
3050;SDS011;1535;51.098;6.414;2023-03-01T12:50:23;29.10;;;26.60;;
3050;SDS011;1535;51.098;6.414;2023-03-01T12:52:54;27.97;;;25.57;;
3050;SDS011;1535;51.098;6.414;2023-03-01T12:55:25;29.27;;;26.87;;
3050;SDS011;1535;51.098;6.414;2023-03-01T12:57:59;28.13;;;25.70;;
3050;SDS011;1535;51.098;6.414;2023-03-01T13:00:34;28.30;;;25.83;;
3050;SDS011;1535;51.098;6.414;2023-03-01T13:03:09;28.13;;;25.90;;
3050;SDS011;1535;51.098;6.414;2023-03-01T13:05:52;28.53;;;26.27;;
3050;SDS011;1535;51.098;6.414;2023-03-01T13:08:29;28.13;;;25.93;;
3050;SDS011;1535;51.098;6.414;2023-03-01T13:11:01;27.50;;;25.50;;
3050;SDS011;1535;51.098;6.414;2023-03-01T13:13:31;27.00;;;24.80;;
3050;SDS011;1535;51.098;6.414;2023-03-01T13:15:58;26.83;;;24.73;;
3050;SDS011;1535;51.098;6.414;2023-03-01T13:19:08;26.27;;;24.33;;
3050;SDS011;1535;51.098;6.414;2023-03-01T13:21:40;26.77;;;24.57;;
3050;SDS011;1535;51.098;6.414;2023-03-01T13:27:09;25.70;;;23.90;;
3050;SDS011;1535;51.098;6.414;2023-03-01T13:29:48;26.07;;;23.93;;
3050;SDS011;1535;51.098;6.414;2023-03-01T13:32:20;23.80;;;21.90;;
3050;SDS011;1535;51.098;6.414;2023-03-01T13:34:50;25.13;;;23.13;;
3050;SDS011;1535;51.098;6.414;2023-03-01T13:37:19;25.57;;;23.77;;
3050;SDS011;1535;51.098;6.414;2023-03-01T13:39:48;24.77;;;23.00;;
3050;SDS011;1535;51.098;6.414;2023-03-01T13:45:05;25.03;;;23.00;;
3050;SDS011;1535;51.098;6.414;2023-03-01T13:47:48;24.97;;;23.17;;
3050;SDS011;1535;51.098;6.414;2023-03-01T13:50:21;23.40;;;21.70;;
3050;SDS011;1535;51.098;6.414;2023-03-01T13:52:50;27.07;;;24.50;;
3050;SDS011;1535;51.098;6.414;2023-03-01T13:55:23;25.50;;;23.60;;
3050;SDS011;1535;51.098;6.414;2023-03-01T13:57:54;26.10;;;23.97;;
3050;SDS011;1535;51.098;6.414;2023-03-01T14:00:28;23.83;;;22.13;;
3050;SDS011;1535;51.098;6.414;2023-03-01T14:03:01;24.07;;;22.37;;
3050;SDS011;1535;51.098;6.414;2023-03-01T14:05:34;25.23;;;22.90;;
3050;SDS011;1535;51.098;6.414;2023-03-01T14:08:02;23.73;;;21.87;;
3050;SDS011;1535;51.098;6.414;2023-03-01T14:10:31;25.40;;;23.37;;
3050;SDS011;1535;51.098;6.414;2023-03-01T14:13:08;24.60;;;22.80;;
3050;SDS011;1535;51.098;6.414;2023-03-01T14:15:49;27.83;;;23.00;;
3050;SDS011;1535;51.098;6.414;2023-03-01T14:18:26;25.50;;;23.73;;
3050;SDS011;1535;51.098;6.414;2023-03-01T14:20:59;26.07;;;23.77;;
3050;SDS011;1535;51.098;6.414;2023-03-01T14:23:27;24.40;;;22.60;;
3050;SDS011;1535;51.098;6.414;2023-03-01T14:25:55;25.17;;;23.03;;
3050;SDS011;1535;51.098;6.414;2023-03-01T14:28:24;25.73;;;23.50;;
3050;SDS011;1535;51.098;6.414;2023-03-01T14:30:54;23.47;;;21.97;;
3050;SDS011;1535;51.098;6.414;2023-03-01T14:33:23;25.70;;;23.63;;
3050;SDS011;1535;51.098;6.414;2023-03-01T14:35:52;26.30;;;24.33;;
3050;SDS011;1535;51.098;6.414;2023-03-01T14:38:21;24.23;;;22.30;;
3050;SDS011;1535;51.098;6.414;2023-03-01T14:40:50;24.43;;;22.63;;
3050;SDS011;1535;51.098;6.414;2023-03-01T14:43:22;22.77;;;21.27;;
3050;SDS011;1535;51.098;6.414;2023-03-01T14:45:50;25.80;;;23.50;;
3050;SDS011;1535;51.098;6.414;2023-03-01T14:48:19;25.10;;;23.20;;
3050;SDS011;1535;51.098;6.414;2023-03-01T14:50:47;26.23;;;24.23;;
3050;SDS011;1535;51.098;6.414;2023-03-01T14:53:16;27.30;;;24.97;;
3050;SDS011;1535;51.098;6.414;2023-03-01T14:55:46;26.37;;;24.00;;
3050;SDS011;1535;51.098;6.414;2023-03-01T14:58:15;24.70;;;23.03;;
3050;SDS011;1535;51.098;6.414;2023-03-01T15:00:46;26.00;;;23.90;;
3050;SDS011;1535;51.098;6.414;2023-03-01T15:03:17;27.10;;;24.90;;
3050;SDS011;1535;51.098;6.414;2023-03-01T15:05:50;27.17;;;24.87;;
3050;SDS011;1535;51.098;6.414;2023-03-01T15:08:19;25.30;;;23.50;;
3050;SDS011;1535;51.098;6.414;2023-03-01T15:10:56;26.17;;;24.13;;
3050;SDS011;1535;51.098;6.414;2023-03-01T15:13:25;26.63;;;24.73;;
3050;SDS011;1535;51.098;6.414;2023-03-01T15:16:00;26.97;;;24.00;;
3050;SDS011;1535;51.098;6.414;2023-03-01T15:18:35;25.93;;;24.07;;
3050;SDS011;1535;51.098;6.414;2023-03-01T15:21:07;25.00;;;23.10;;
3050;SDS011;1535;51.098;6.414;2023-03-01T15:23:36;25.77;;;23.87;;